METAR
MSSS 210450Z 15003KT 9999 FEW023 22/21 Q1016 A3001 MSSS 210350Z 17004KT 9999 FEW023 23/21 Q1016 A3001 TAF MSSS 210325Z 2106/2206 35007KT 6000 TSRA BKN013 SCT037CB TX29/2120Z TN21/2112Z FM210800 00000KT 7000 NSW BKN010 TEMPO 2110/2113 4000 BR FM211300 34005KT 8000 SCT013 FM211800 17008KT SCT020 FEW040CB
TAF
MSSS 210325Z 2106/2206 35007KT 6000 TSRA BKN013 SCT037CB TX29/2120Z TN21/2112Z FM210800 00000KT 7000 NSW BKN010 TEMPO 2110/2113 4000 BR FM211300 34005KT 8000 SCT013 FM211800 17008KT SCT020 FEW040CB

Cámaras Aeroclub

Norte

Este

Sur

Oeste

AIS/AIP El Salvador

Autoridad de Aviación Civil (AAC) El Salvador

VER DOCUMENTO